sensor_id;sensor_type;location;lat;lon;timestamp;temperature;humidity
11599;DHT22;5855;48.840;9.188;2023-02-28T00:01:18;-3.10;99.90
11599;DHT22;5855;48.840;9.188;2023-02-28T00:03:45;-3.00;99.90
11599;DHT22;5855;48.840;9.188;2023-02-28T00:06:11;-3.00;99.90
11599;DHT22;5855;48.840;9.188;2023-02-28T00:08:39;-3.00;99.90
11599;DHT22;5855;48.840;9.188;2023-02-28T00:11:10;-3.00;99.90
11599;DHT22;5855;48.840;9.188;2023-02-28T00:13:38;-3.00;99.90
11599;DHT22;5855;48.840;9.188;2023-02-28T00:16:08;-3.00;99.90
11599;DHT22;5855;48.840;9.188;2023-02-28T00:18:35;-3.00;99.90
11599;DHT22;5855;48.840;9.188;2023-02-28T00:21:02;-3.10;99.90
11599;DHT22;5855;48.840;9.188;2023-02-28T00:23:29;-3.10;99.90
11599;DHT22;5855;48.840;9.188;2023-02-28T00:25:56;-3.10;99.90
11599;DHT22;5855;48.840;9.188;2023-02-28T00:28:24;-3.10;99.90
11599;DHT22;5855;48.840;9.188;2023-02-28T00:30:51;-3.10;99.90
11599;DHT22;5855;48.840;9.188;2023-02-28T00:33:18;-3.10;99.90
11599;DHT22;5855;48.840;9.188;2023-02-28T00:35:45;-3.10;99.90
11599;DHT22;5855;48.840;9.188;2023-02-28T00:38:14;-3.10;99.90
11599;DHT22;5855;48.840;9.188;2023-02-28T00:40:41;-3.10;99.90
11599;DHT22;5855;48.840;9.188;2023-02-28T00:43:08;-3.10;99.90
11599;DHT22;5855;48.840;9.188;2023-02-28T00:45:36;-3.20;99.90
11599;DHT22;5855;48.840;9.188;2023-02-28T00:48:03;-3.20;99.90
11599;DHT22;5855;48.840;9.188;2023-02-28T00:50:30;-3.20;99.90
11599;DHT22;5855;48.840;9.188;2023-02-28T00:52:57;-3.20;99.90
11599;DHT22;5855;48.840;9.188;2023-02-28T00:55:24;-3.20;99.90
11599;DHT22;5855;48.840;9.188;2023-02-28T00:57:50;-3.20;99.90
11599;DHT22;5855;48.840;9.188;2023-02-28T01:00:18;-3.20;99.90
11599;DHT22;5855;48.840;9.188;2023-02-28T01:02:46;-3.30;99.90
11599;DHT22;5855;48.840;9.188;2023-02-28T01:05:13;-3.30;99.90
11599;DHT22;5855;48.840;9.188;2023-02-28T01:07:40;-3.30;99.90
11599;DHT22;5855;48.840;9.188;2023-02-28T01:10:08;-3.30;99.90
11599;DHT22;5855;48.840;9.188;2023-02-28T01:12:34;-3.40;99.90
11599;DHT22;5855;48.840;9.188;2023-02-28T01:15:01;-3.30;99.90
11599;DHT22;5855;48.840;9.188;2023-02-28T01:17:28;-3.30;99.90
11599;DHT22;5855;48.840;9.188;2023-02-28T01:19:57;-3.30;99.90
11599;DHT22;5855;48.840;9.188;2023-02-28T01:22:23;-3.40;99.90
11599;DHT22;5855;48.840;9.188;2023-02-28T01:24:50;-3.40;99.90
11599;DHT22;5855;48.840;9.188;2023-02-28T01:27:17;-3.30;99.90
11599;DHT22;5855;48.840;9.188;2023-02-28T01:29:44;-3.30;99.90
11599;DHT22;5855;48.840;9.188;2023-02-28T01:32:11;-3.30;99.90
11599;DHT22;5855;48.840;9.188;2023-02-28T01:34:37;-3.40;99.90
11599;DHT22;5855;48.840;9.188;2023-02-28T01:37:05;-3.40;99.90
11599;DHT22;5855;48.840;9.188;2023-02-28T01:39:32;-3.30;99.90
11599;DHT22;5855;48.840;9.188;2023-02-28T01:41:59;-3.40;99.90
11599;DHT22;5855;48.840;9.188;2023-02-28T01:44:59;-3.40;99.90
11599;DHT22;5855;48.840;9.188;2023-02-28T01:47:28;-3.40;99.90
11599;DHT22;5855;48.840;9.188;2023-02-28T01:49:55;-3.50;99.90
11599;DHT22;5855;48.840;9.188;2023-02-28T01:52:24;-3.50;99.90
11599;DHT22;5855;48.840;9.188;2023-02-28T01:54:54;-3.60;99.90
11599;DHT22;5855;48.840;9.188;2023-02-28T01:57:24;-3.60;99.90
11599;DHT22;5855;48.840;9.188;2023-02-28T01:59:56;-3.60;99.90
11599;DHT22;5855;48.840;9.188;2023-02-28T02:02:25;-3.60;99.90
11599;DHT22;5855;48.840;9.188;2023-02-28T02:04:55;-3.60;99.90
11599;DHT22;5855;48.840;9.188;2023-02-28T02:07:25;-3.60;99.90
11599;DHT22;5855;48.840;9.188;2023-02-28T02:10:00;-3.60;99.90
11599;DHT22;5855;48.840;9.188;2023-02-28T02:12:43;-3.60;99.90
11599;DHT22;5855;48.840;9.188;2023-02-28T02:15:13;-3.60;99.90
11599;DHT22;5855;48.840;9.188;2023-02-28T02:17:44;-3.60;99.90
11599;DHT22;5855;48.840;9.188;2023-02-28T02:23:46;-3.50;99.90
11599;DHT22;5855;48.840;9.188;2023-02-28T02:26:45;-3.50;99.90
11599;DHT22;5855;48.840;9.188;2023-02-28T02:32:46;-3.30;99.90
11599;DHT22;5855;48.840;9.188;2023-02-28T02:35:20;-3.30;99.90
11599;DHT22;5855;48.840;9.188;2023-02-28T02:37:53;-3.30;99.90
11599;DHT22;5855;48.840;9.188;2023-02-28T02:40:24;-3.20;99.90
11599;DHT22;5855;48.840;9.188;2023-02-28T02:42:55;-3.10;99.90
11599;DHT22;5855;48.840;9.188;2023-02-28T02:45:25;-3.10;99.90
11599;DHT22;5855;48.840;9.188;2023-02-28T02:47:55;-3.00;99.90
11599;DHT22;5855;48.840;9.188;2023-02-28T02:50:28;-2.90;99.90
11599;DHT22;5855;48.840;9.188;2023-02-28T02:52:58;-2.80;99.90
11599;DHT22;5855;48.840;9.188;2023-02-28T02:55:27;-2.80;99.90
11599;DHT22;5855;48.840;9.188;2023-02-28T02:57:57;-2.80;99.90
11599;DHT22;5855;48.840;9.188;2023-02-28T03:00:28;-2.70;99.90
11599;DHT22;5855;48.840;9.188;2023-02-28T03:02:57;-2.70;99.90
11599;DHT22;5855;48.840;9.188;2023-02-28T03:05:27;-2.60;99.90
11599;DHT22;5855;48.840;9.188;2023-02-28T03:07:56;-2.60;99.90
11599;DHT22;5855;48.840;9.188;2023-02-28T03:10:41;-2.50;99.90
11599;DHT22;5855;48.840;9.188;2023-02-28T03:13:24;-2.50;99.90
11599;DHT22;5855;48.840;9.188;2023-02-28T03:16:10;-2.40;99.90
11599;DHT22;5855;48.840;9.188;2023-02-28T03:18:43;-2.30;99.90
11599;DHT22;5855;48.840;9.188;2023-02-28T03:21:23;-2.30;99.90
11599;DHT22;5855;48.840;9.188;2023-02-28T03:23:57;-2.30;99.90
11599;DHT22;5855;48.840;9.188;2023-02-28T03:26:27;-2.20;99.90
11599;DHT22;5855;48.840;9.188;2023-02-28T03:29:01;-2.20;99.90
11599;DHT22;5855;48.840;9.188;2023-02-28T03:31:32;-2.20;99.90
11599;DHT22;5855;48.840;9.188;2023-02-28T03:34:04;-2.10;99.90
11599;DHT22;5855;48.840;9.188;2023-02-28T03:36:37;-2.10;99.90
11599;DHT22;5855;48.840;9.188;2023-02-28T03:39:11;-2.00;99.90
11599;DHT22;5855;48.840;9.188;2023-02-28T03:41:42;-2.00;99.90
11599;DHT22;5855;48.840;9.188;2023-02-28T03:44:13;-2.00;99.90
11599;DHT22;5855;48.840;9.188;2023-02-28T03:46:45;-2.00;99.90
11599;DHT22;5855;48.840;9.188;2023-02-28T03:49:17;-1.90;99.90
11599;DHT22;5855;48.840;9.188;2023-02-28T03:51:47;-1.90;99.90
11599;DHT22;5855;48.840;9.188;2023-02-28T03:54:18;-1.90;99.90
11599;DHT22;5855;48.840;9.188;2023-02-28T03:56:50;-1.90;99.90
11599;DHT22;5855;48.840;9.188;2023-02-28T03:59:24;-1.80;99.90
11599;DHT22;5855;48.840;9.188;2023-02-28T04:01:52;-1.80;99.90
11599;DHT22;5855;48.840;9.188;2023-02-28T04:04:20;-1.80;99.90
11599;DHT22;5855;48.840;9.188;2023-02-28T04:06:51;-1.70;99.90
11599;DHT22;5855;48.840;9.188;2023-02-28T04:09:18;-1.70;99.90
11599;DHT22;5855;48.840;9.188;2023-02-28T04:11:48;-1.70;99.90
11599;DHT22;5855;48.840;9.188;2023-02-28T04:14:16;-1.70;99.90
11599;DHT22;5855;48.840;9.188;2023-02-28T04:16:44;-1.70;99.90
11599;DHT22;5855;48.840;9.188;2023-02-28T04:19:12;-1.70;99.90
11599;DHT22;5855;48.840;9.188;2023-02-28T04:21:41;-1.70;99.90
11599;DHT22;5855;48.840;9.188;2023-02-28T04:24:12;-1.60;99.90
11599;DHT22;5855;48.840;9.188;2023-02-28T04:26:41;-1.60;99.90
11599;DHT22;5855;48.840;9.188;2023-02-28T04:29:10;-1.50;99.90
11599;DHT22;5855;48.840;9.188;2023-02-28T04:31:37;-1.40;99.90
11599;DHT22;5855;48.840;9.188;2023-02-28T04:34:04;-1.30;99.90
11599;DHT22;5855;48.840;9.188;2023-02-28T04:36:31;-1.40;99.90
11599;DHT22;5855;48.840;9.188;2023-02-28T04:38:58;-1.40;99.90
11599;DHT22;5855;48.840;9.188;2023-02-28T04:41:26;-1.40;99.90
11599;DHT22;5855;48.840;9.188;2023-02-28T04:43:53;-1.30;99.90
11599;DHT22;5855;48.840;9.188;2023-02-28T04:46:22;-1.30;99.90
11599;DHT22;5855;48.840;9.188;2023-02-28T04:48:49;-1.40;99.90
11599;DHT22;5855;48.840;9.188;2023-02-28T04:51:17;-1.30;99.90
11599;DHT22;5855;48.840;9.188;2023-02-28T04:53:44;-1.30;99.90
11599;DHT22;5855;48.840;9.188;2023-02-28T04:56:13;-1.30;99.90
11599;DHT22;5855;48.840;9.188;2023-02-28T04:58:42;-1.30;99.90
11599;DHT22;5855;48.840;9.188;2023-02-28T05:01:21;-1.20;99.90
11599;DHT22;5855;48.840;9.188;2023-02-28T05:03:48;-1.20;99.90
11599;DHT22;5855;48.840;9.188;2023-02-28T05:06:16;-1.20;99.90
11599;DHT22;5855;48.840;9.188;2023-02-28T05:08:43;-1.20;99.90
11599;DHT22;5855;48.840;9.188;2023-02-28T05:11:15;-1.10;99.90
11599;DHT22;5855;48.840;9.188;2023-02-28T05:13:44;-1.00;99.90
11599;DHT22;5855;48.840;9.188;2023-02-28T05:16:11;-1.10;99.90
11599;DHT22;5855;48.840;9.188;2023-02-28T05:18:38;-1.10;99.90
11599;DHT22;5855;48.840;9.188;2023-02-28T05:21:05;-1.10;99.90
11599;DHT22;5855;48.840;9.188;2023-02-28T05:23:32;-1.10;99.90
11599;DHT22;5855;48.840;9.188;2023-02-28T05:25:59;-1.10;99.90
11599;DHT22;5855;48.840;9.188;2023-02-28T05:28:26;-1.10;99.90
11599;DHT22;5855;48.840;9.188;2023-02-28T05:30:54;-1.10;99.90
11599;DHT22;5855;48.840;9.188;2023-02-28T05:33:21;-1.10;99.90
11599;DHT22;5855;48.840;9.188;2023-02-28T05:35:47;-1.10;99.90
11599;DHT22;5855;48.840;9.188;2023-02-28T05:38:14;-1.10;99.90
11599;DHT22;5855;48.840;9.188;2023-02-28T05:40:41;-1.10;99.90
11599;DHT22;5855;48.840;9.188;2023-02-28T05:43:10;-1.00;99.90
11599;DHT22;5855;48.840;9.188;2023-02-28T05:45:38;-1.00;99.90
11599;DHT22;5855;48.840;9.188;2023-02-28T05:48:07;-1.00;99.90
11599;DHT22;5855;48.840;9.188;2023-02-28T05:50:34;-1.00;99.90
11599;DHT22;5855;48.840;9.188;2023-02-28T05:53:01;-1.00;99.90
11599;DHT22;5855;48.840;9.188;2023-02-28T05:55:28;-0.90;99.90
11599;DHT22;5855;48.840;9.188;2023-02-28T05:57:55;-0.90;99.90
11599;DHT22;5855;48.840;9.188;2023-02-28T06:00:22;-0.90;99.90
11599;DHT22;5855;48.840;9.188;2023-02-28T06:02:49;-0.80;99.90
11599;DHT22;5855;48.840;9.188;2023-02-28T06:05:18;-0.80;99.90
11599;DHT22;5855;48.840;9.188;2023-02-28T06:07:45;-0.90;99.90
11599;DHT22;5855;48.840;9.188;2023-02-28T06:10:12;-0.90;99.90
11599;DHT22;5855;48.840;9.188;2023-02-28T06:12:39;-0.90;99.90
11599;DHT22;5855;48.840;9.188;2023-02-28T06:15:09;-0.90;99.90
11599;DHT22;5855;48.840;9.188;2023-02-28T06:17:38;-0.90;99.90
11599;DHT22;5855;48.840;9.188;2023-02-28T06:20:06;-0.90;99.90
11599;DHT22;5855;48.840;9.188;2023-02-28T06:22:34;-0.90;99.90
11599;DHT22;5855;48.840;9.188;2023-02-28T06:25:02;-0.90;99.90
11599;DHT22;5855;48.840;9.188;2023-02-28T06:27:28;-0.90;99.90
11599;DHT22;5855;48.840;9.188;2023-02-28T06:29:56;-0.80;99.90
11599;DHT22;5855;48.840;9.188;2023-02-28T06:32:23;-0.80;99.90
11599;DHT22;5855;48.840;9.188;2023-02-28T06:34:50;-0.90;99.90
11599;DHT22;5855;48.840;9.188;2023-02-28T06:37:17;-0.90;99.90
11599;DHT22;5855;48.840;9.188;2023-02-28T06:39:45;-0.80;99.90
11599;DHT22;5855;48.840;9.188;2023-02-28T06:42:12;-0.70;99.90
11599;DHT22;5855;48.840;9.188;2023-02-28T06:44:39;-0.70;99.90
11599;DHT22;5855;48.840;9.188;2023-02-28T06:47:06;-0.70;99.90
11599;DHT22;5855;48.840;9.188;2023-02-28T06:49:34;-0.70;99.90
11599;DHT22;5855;48.840;9.188;2023-02-28T06:52:02;-0.60;99.90
11599;DHT22;5855;48.840;9.188;2023-02-28T06:54:29;-0.60;99.90
11599;DHT22;5855;48.840;9.188;2023-02-28T06:56:58;-0.50;99.90
11599;DHT22;5855;48.840;9.188;2023-02-28T06:59:25;-0.50;99.90
11599;DHT22;5855;48.840;9.188;2023-02-28T07:01:52;-0.50;99.90
11599;DHT22;5855;48.840;9.188;2023-02-28T07:04:20;-0.40;99.90
11599;DHT22;5855;48.840;9.188;2023-02-28T07:06:47;-0.40;99.90
11599;DHT22;5855;48.840;9.188;2023-02-28T07:09:14;-0.40;99.90
11599;DHT22;5855;48.840;9.188;2023-02-28T07:11:41;-0.40;99.90
11599;DHT22;5855;48.840;9.188;2023-02-28T07:14:10;-0.40;99.90
11599;DHT22;5855;48.840;9.188;2023-02-28T07:16:39;-0.30;99.90
11599;DHT22;5855;48.840;9.188;2023-02-28T07:19:05;-0.30;99.90
11599;DHT22;5855;48.840;9.188;2023-02-28T07:21:32;-0.40;99.90
11599;DHT22;5855;48.840;9.188;2023-02-28T07:23:59;-0.30;99.90
11599;DHT22;5855;48.840;9.188;2023-02-28T07:26:26;-0.30;99.90
11599;DHT22;5855;48.840;9.188;2023-02-28T07:28:53;-0.40;99.90
11599;DHT22;5855;48.840;9.188;2023-02-28T07:31:21;-0.30;99.90
11599;DHT22;5855;48.840;9.188;2023-02-28T07:33:47;-0.30;99.90
11599;DHT22;5855;48.840;9.188;2023-02-28T07:36:16;-0.30;99.90
11599;DHT22;5855;48.840;9.188;2023-02-28T07:38:45;-0.20;99.90
11599;DHT22;5855;48.840;9.188;2023-02-28T07:41:13;-0.20;99.90
11599;DHT22;5855;48.840;9.188;2023-02-28T07:43:40;-0.10;99.90
11599;DHT22;5855;48.840;9.188;2023-02-28T07:46:08;-0.10;99.90
11599;DHT22;5855;48.840;9.188;2023-02-28T07:48:37;-0.10;99.90
11599;DHT22;5855;48.840;9.188;2023-02-28T07:51:04;0.00;99.90
11599;DHT22;5855;48.840;9.188;2023-02-28T07:53:31;-0.10;99.90
11599;DHT22;5855;48.840;9.188;2023-02-28T07:55:59;-0.10;99.90
11599;DHT22;5855;48.840;9.188;2023-02-28T07:58:27;0.00;99.90
11599;DHT22;5855;48.840;9.188;2023-02-28T08:00:54;-0.10;99.90
11599;DHT22;5855;48.840;9.188;2023-02-28T08:03:22;0.00;99.90
11599;DHT22;5855;48.840;9.188;2023-02-28T08:05:51;0.10;99.90
11599;DHT22;5855;48.840;9.188;2023-02-28T08:08:21;0.20;99.90
11599;DHT22;5855;48.840;9.188;2023-02-28T08:10:47;0.10;99.90
11599;DHT22;5855;48.840;9.188;2023-02-28T08:13:14;0.20;99.90
11599;DHT22;5855;48.840;9.188;2023-02-28T08:15:42;0.20;99.90
11599;DHT22;5855;48.840;9.188;2023-02-28T08:18:10;0.30;99.90
11599;DHT22;5855;48.840;9.188;2023-02-28T08:20:37;0.30;99.90
11599;DHT22;5855;48.840;9.188;2023-02-28T08:23:05;0.30;99.90
11599;DHT22;5855;48.840;9.188;2023-02-28T08:25:32;0.40;99.90
11599;DHT22;5855;48.840;9.188;2023-02-28T08:27:59;0.50;99.90
11599;DHT22;5855;48.840;9.188;2023-02-28T08:30:26;0.50;99.90
11599;DHT22;5855;48.840;9.188;2023-02-28T08:32:52;0.50;99.90
11599;DHT22;5855;48.840;9.188;2023-02-28T08:35:19;0.60;99.90
11599;DHT22;5855;48.840;9.188;2023-02-28T08:37:47;0.60;99.90
11599;DHT22;5855;48.840;9.188;2023-02-28T08:40:16;0.60;99.90
11599;DHT22;5855;48.840;9.188;2023-02-28T08:42:44;0.70;99.90
11599;DHT22;5855;48.840;9.188;2023-02-28T08:45:11;0.70;99.90
11599;DHT22;5855;48.840;9.188;2023-02-28T08:47:38;0.80;99.90
11599;DHT22;5855;48.840;9.188;2023-02-28T08:50:06;0.90;99.90
11599;DHT22;5855;48.840;9.188;2023-02-28T08:52:32;0.90;99.90
11599;DHT22;5855;48.840;9.188;2023-02-28T08:54:59;1.00;99.90
11599;DHT22;5855;48.840;9.188;2023-02-28T08:57:27;1.00;99.90
11599;DHT22;5855;48.840;9.188;2023-02-28T08:59:54;1.10;99.90
11599;DHT22;5855;48.840;9.188;2023-02-28T09:02:21;1.10;99.90
11599;DHT22;5855;48.840;9.188;2023-02-28T09:04:48;1.20;99.90
11599;DHT22;5855;48.840;9.188;2023-02-28T09:07:14;1.20;99.90
11599;DHT22;5855;48.840;9.188;2023-02-28T09:09:41;1.30;99.90
11599;DHT22;5855;48.840;9.188;2023-02-28T09:12:19;1.40;99.90
11599;DHT22;5855;48.840;9.188;2023-02-28T09:14:47;1.50;99.90
11599;DHT22;5855;48.840;9.188;2023-02-28T09:17:14;1.50;99.90
11599;DHT22;5855;48.840;9.188;2023-02-28T09:19:41;1.60;99.90
11599;DHT22;5855;48.840;9.188;2023-02-28T09:22:08;1.70;99.90
11599;DHT22;5855;48.840;9.188;2023-02-28T09:24:35;1.80;99.90
11599;DHT22;5855;48.840;9.188;2023-02-28T09:27:02;1.90;99.90
11599;DHT22;5855;48.840;9.188;2023-02-28T09:29:29;2.00;99.90
11599;DHT22;5855;48.840;9.188;2023-02-28T09:31:58;2.10;99.90
11599;DHT22;5855;48.840;9.188;2023-02-28T09:34:25;2.30;99.90
11599;DHT22;5855;48.840;9.188;2023-02-28T09:36:51;2.40;99.90
11599;DHT22;5855;48.840;9.188;2023-02-28T09:39:20;2.40;99.90
11599;DHT22;5855;48.840;9.188;2023-02-28T09:41:48;2.60;99.90
11599;DHT22;5855;48.840;9.188;2023-02-28T09:44:21;2.70;99.90
11599;DHT22;5855;48.840;9.188;2023-02-28T09:46:54;2.90;99.90
11599;DHT22;5855;48.840;9.188;2023-02-28T09:49:28;3.00;99.90
11599;DHT22;5855;48.840;9.188;2023-02-28T09:52:01;3.00;99.90
11599;DHT22;5855;48.840;9.188;2023-02-28T09:54:29;3.10;99.90
11599;DHT22;5855;48.840;9.188;2023-02-28T09:57:00;3.00;99.90
11599;DHT22;5855;48.840;9.188;2023-02-28T09:59:39;3.10;99.90
11599;DHT22;5855;48.840;9.188;2023-02-28T10:05:23;3.20;99.90
11599;DHT22;5855;48.840;9.188;2023-02-28T10:07:58;3.10;99.90
11599;DHT22;5855;48.840;9.188;2023-02-28T10:10:29;3.30;99.90
11599;DHT22;5855;48.840;9.188;2023-02-28T10:13:01;3.30;99.90
11599;DHT22;5855;48.840;9.188;2023-02-28T10:15:31;3.30;99.90
11599;DHT22;5855;48.840;9.188;2023-02-28T10:18:01;3.50;99.90
11599;DHT22;5855;48.840;9.188;2023-02-28T10:20:33;3.60;99.90
11599;DHT22;5855;48.840;9.188;2023-02-28T10:23:05;3.80;99.90
11599;DHT22;5855;48.840;9.188;2023-02-28T10:25:37;3.90;99.90
11599;DHT22;5855;48.840;9.188;2023-02-28T10:28:15;4.00;99.90
11599;DHT22;5855;48.840;9.188;2023-02-28T10:30:45;4.20;99.90
11599;DHT22;5855;48.840;9.188;2023-02-28T10:33:22;4.20;99.90
11599;DHT22;5855;48.840;9.188;2023-02-28T10:35:51;4.40;99.90
11599;DHT22;5855;48.840;9.188;2023-02-28T10:38:20;4.40;99.90
11599;DHT22;5855;48.840;9.188;2023-02-28T10:40:47;4.50;99.90
11599;DHT22;5855;48.840;9.188;2023-02-28T10:43:21;4.40;99.90
11599;DHT22;5855;48.840;9.188;2023-02-28T10:45:58;4.80;99.90
11599;DHT22;5855;48.840;9.188;2023-02-28T10:48:30;5.10;99.20
11599;DHT22;5855;48.840;9.188;2023-02-28T10:50:59;5.50;98.90
11599;DHT22;5855;48.840;9.188;2023-02-28T10:53:35;5.80;98.00
11599;DHT22;5855;48.840;9.188;2023-02-28T10:56:06;6.00;97.30
11599;DHT22;5855;48.840;9.188;2023-02-28T10:58:48;6.30;96.60
11599;DHT22;5855;48.840;9.188;2023-02-28T11:01:17;6.30;95.60
11599;DHT22;5855;48.840;9.188;2023-02-28T11:03:45;6.20;95.40
11599;DHT22;5855;48.840;9.188;2023-02-28T11:06:19;6.20;95.50
11599;DHT22;5855;48.840;9.188;2023-02-28T11:08:49;6.40;95.80
11599;DHT22;5855;48.840;9.188;2023-02-28T11:11:17;6.60;95.10
11599;DHT22;5855;48.840;9.188;2023-02-28T11:13:45;7.00;94.30
11599;DHT22;5855;48.840;9.188;2023-02-28T11:16:14;7.30;93.70
11599;DHT22;5855;48.840;9.188;2023-02-28T11:18:48;7.70;92.90
11599;DHT22;5855;48.840;9.188;2023-02-28T11:21:22;8.20;91.70
11599;DHT22;5855;48.840;9.188;2023-02-28T11:23:51;8.60;90.90
11599;DHT22;5855;48.840;9.188;2023-02-28T11:26:37;8.70;89.70
11599;DHT22;5855;48.840;9.188;2023-02-28T11:29:17;8.60;89.30
11599;DHT22;5855;48.840;9.188;2023-02-28T11:32:02;8.70;89.10
11599;DHT22;5855;48.840;9.188;2023-02-28T11:34:29;8.70;88.90
11599;DHT22;5855;48.840;9.188;2023-02-28T11:36:59;8.80;87.90
11599;DHT22;5855;48.840;9.188;2023-02-28T11:39:27;9.10;86.70
11599;DHT22;5855;48.840;9.188;2023-02-28T11:42:09;9.10;85.60
11599;DHT22;5855;48.840;9.188;2023-02-28T11:44:48;9.30;84.80
11599;DHT22;5855;48.840;9.188;2023-02-28T11:47:26;9.40;83.90
11599;DHT22;5855;48.840;9.188;2023-02-28T11:50:09;9.80;83.30
11599;DHT22;5855;48.840;9.188;2023-02-28T11:52:45;10.30;80.30
11599;DHT22;5855;48.840;9.188;2023-02-28T11:55:18;10.60;77.30
11599;DHT22;5855;48.840;9.188;2023-02-28T11:58:00;10.90;75.20
11599;DHT22;5855;48.840;9.188;2023-02-28T12:03:30;11.00;73.60
11599;DHT22;5855;48.840;9.188;2023-02-28T12:06:08;11.60;71.20
11599;DHT22;5855;48.840;9.188;2023-02-28T12:08:47;12.60;69.70
11599;DHT22;5855;48.840;9.188;2023-02-28T12:11:27;13.30;65.10
11599;DHT22;5855;48.840;9.188;2023-02-28T12:14:09;14.30;59.90
11599;DHT22;5855;48.840;9.188;2023-02-28T12:16:47;15.00;57.60
11599;DHT22;5855;48.840;9.188;2023-02-28T12:19:19;16.90;51.80
11599;DHT22;5855;48.840;9.188;2023-02-28T12:22:00;17.90;46.40
11599;DHT22;5855;48.840;9.188;2023-02-28T12:24:54;19.00;40.80
11599;DHT22;5855;48.840;9.188;2023-02-28T12:27:24;19.30;36.70
11599;DHT22;5855;48.840;9.188;2023-02-28T12:29:55;19.70;34.00
11599;DHT22;5855;48.840;9.188;2023-02-28T12:32:26;20.10;32.60
11599;DHT22;5855;48.840;9.188;2023-02-28T12:34:58;20.20;32.20
11599;DHT22;5855;48.840;9.188;2023-02-28T12:37:31;21.50;30.40
11599;DHT22;5855;48.840;9.188;2023-02-28T12:40:05;22.20;27.80
11599;DHT22;5855;48.840;9.188;2023-02-28T12:42:36;22.80;26.50
11599;DHT22;5855;48.840;9.188;2023-02-28T12:45:10;22.40;25.80
11599;DHT22;5855;48.840;9.188;2023-02-28T12:47:40;22.60;24.70
11599;DHT22;5855;48.840;9.188;2023-02-28T12:50:10;23.10;24.50
11599;DHT22;5855;48.840;9.188;2023-02-28T12:52:48;23.80;23.40
11599;DHT22;5855;48.840;9.188;2023-02-28T12:55:25;23.80;22.30
11599;DHT22;5855;48.840;9.188;2023-02-28T12:58:00;23.00;22.20
11599;DHT22;5855;48.840;9.188;2023-02-28T13:00:33;22.50;22.70
11599;DHT22;5855;48.840;9.188;2023-02-28T13:06:39;23.60;21.90
11599;DHT22;5855;48.840;9.188;2023-02-28T13:09:11;24.70;21.50
11599;DHT22;5855;48.840;9.188;2023-02-28T13:11:43;25.90;20.30
11599;DHT22;5855;48.840;9.188;2023-02-28T13:14:26;26.10;19.40
11599;DHT22;5855;48.840;9.188;2023-02-28T13:16:59;25.50;18.30
11599;DHT22;5855;48.840;9.188;2023-02-28T13:19:28;25.30;18.70
11599;DHT22;5855;48.840;9.188;2023-02-28T13:21:56;25.20;19.20
11599;DHT22;5855;48.840;9.188;2023-02-28T13:24:46;25.90;18.50
11599;DHT22;5855;48.840;9.188;2023-02-28T13:27:33;26.10;18.60
11599;DHT22;5855;48.840;9.188;2023-02-28T13:30:01;27.20;17.70
11599;DHT22;5855;48.840;9.188;2023-02-28T13:36:10;27.80;16.50
11599;DHT22;5855;48.840;9.188;2023-02-28T13:38:40;27.90;16.00
11599;DHT22;5855;48.840;9.188;2023-02-28T13:41:42;28.40;15.70
11599;DHT22;5855;48.840;9.188;2023-02-28T13:44:14;29.10;14.80
11599;DHT22;5855;48.840;9.188;2023-02-28T13:50:22;28.80;14.10
11599;DHT22;5855;48.840;9.188;2023-02-28T13:52:57;29.40;13.70
11599;DHT22;5855;48.840;9.188;2023-02-28T13:55:31;29.70;13.30
11599;DHT22;5855;48.840;9.188;2023-02-28T13:58:12;29.90;13.10
11599;DHT22;5855;48.840;9.188;2023-02-28T14:01:11;30.10;13.00
11599;DHT22;5855;48.840;9.188;2023-02-28T14:04:07;30.40;12.50
11599;DHT22;5855;48.840;9.188;2023-02-28T14:06:38;30.60;12.40
11599;DHT22;5855;48.840;9.188;2023-02-28T14:09:18;31.20;11.60
11599;DHT22;5855;48.840;9.188;2023-02-28T14:11:46;30.40;11.60
11599;DHT22;5855;48.840;9.188;2023-02-28T14:17:15;29.60;11.70
11599;DHT22;5855;48.840;9.188;2023-02-28T14:19:45;30.00;11.90
11599;DHT22;5855;48.840;9.188;2023-02-28T14:22:38;30.70;11.30
11599;DHT22;5855;48.840;9.188;2023-02-28T14:25:18;31.00;11.10
11599;DHT22;5855;48.840;9.188;2023-02-28T14:27:52;31.10;10.70
11599;DHT22;5855;48.840;9.188;2023-02-28T14:30:49;30.80;10.70
11599;DHT22;5855;48.840;9.188;2023-02-28T14:33:39;31.50;10.50
11599;DHT22;5855;48.840;9.188;2023-02-28T14:36:18;31.20;10.50
11599;DHT22;5855;48.840;9.188;2023-02-28T14:38:51;31.10;10.20
11599;DHT22;5855;48.840;9.188;2023-02-28T14:41:21;30.80;10.20
11599;DHT22;5855;48.840;9.188;2023-02-28T14:43:51;29.90;10.20
11599;DHT22;5855;48.840;9.188;2023-02-28T14:46:19;29.60;11.00
11599;DHT22;5855;48.840;9.188;2023-02-28T14:48:48;29.80;10.80
11599;DHT22;5855;48.840;9.188;2023-02-28T14:51:19;30.00;10.60
11599;DHT22;5855;48.840;9.188;2023-02-28T14:53:50;30.40;10.30
11599;DHT22;5855;48.840;9.188;2023-02-28T14:56:23;30.90;10.10
11599;DHT22;5855;48.840;9.188;2023-02-28T14:58:52;31.30;9.80
11599;DHT22;5855;48.840;9.188;2023-02-28T15:01:20;31.10;9.80
11599;DHT22;5855;48.840;9.188;2023-02-28T15:03:57;30.40;9.90
11599;DHT22;5855;48.840;9.188;2023-02-28T15:06:24;31.00;10.00
11599;DHT22;5855;48.840;9.188;2023-02-28T15:09:07;31.30;9.80
11599;DHT22;5855;48.840;9.188;2023-02-28T15:11:35;32.00;9.40
11599;DHT22;5855;48.840;9.188;2023-02-28T15:14:03;31.70;9.40
11599;DHT22;5855;48.840;9.188;2023-02-28T15:16:33;31.30;9.40
11599;DHT22;5855;48.840;9.188;2023-02-28T15:19:05;30.40;9.70
11599;DHT22;5855;48.840;9.188;2023-02-28T15:21:34;29.30;10.30
11599;DHT22;5855;48.840;9.188;2023-02-28T15:24:15;28.30;10.80
11599;DHT22;5855;48.840;9.188;2023-02-28T15:26:53;27.40;11.40
11599;DHT22;5855;48.840;9.188;2023-02-28T15:29:22;26.90;11.90
11599;DHT22;5855;48.840;9.188;2023-02-28T15:31:56;25.50;12.80
11599;DHT22;5855;48.840;9.188;2023-02-28T15:34:33;24.10;13.40
11599;DHT22;5855;48.840;9.188;2023-02-28T15:37:00;23.20;14.20
11599;DHT22;5855;48.840;9.188;2023-02-28T15:39:28;21.90;14.90
11599;DHT22;5855;48.840;9.188;2023-02-28T15:42:10;21.40;15.20
11599;DHT22;5855;48.840;9.188;2023-02-28T15:44:37;21.20;16.00
11599;DHT22;5855;48.840;9.188;2023-02-28T15:47:05;20.60;16.10
11599;DHT22;5855;48.840;9.188;2023-02-28T15:49:39;19.70;16.40
11599;DHT22;5855;48.840;9.188;2023-02-28T15:52:13;19.50;17.40
11599;DHT22;5855;48.840;9.188;2023-02-28T15:54:40;18.90;17.70
11599;DHT22;5855;48.840;9.188;2023-02-28T15:57:14;18.20;18.20
11599;DHT22;5855;48.840;9.188;2023-02-28T15:59:48;17.30;18.90
11599;DHT22;5855;48.840;9.188;2023-02-28T16:02:17;17.20;19.70
11599;DHT22;5855;48.840;9.188;2023-02-28T16:04:58;16.70;19.90
11599;DHT22;5855;48.840;9.188;2023-02-28T16:07:26;16.70;20.10
11599;DHT22;5855;48.840;9.188;2023-02-28T16:09:53;16.90;20.10
11599;DHT22;5855;48.840;9.188;2023-02-28T16:12:21;16.80;19.80
11599;DHT22;5855;48.840;9.188;2023-02-28T16:14:52;16.50;19.90
11599;DHT22;5855;48.840;9.188;2023-02-28T16:17:21;16.10;20.60
11599;DHT22;5855;48.840;9.188;2023-02-28T16:19:49;15.80;21.00
11599;DHT22;5855;48.840;9.188;2023-02-28T16:22:17;14.80;21.70
11599;DHT22;5855;48.840;9.188;2023-02-28T16:24:44;14.10;22.60
11599;DHT22;5855;48.840;9.188;2023-02-28T16:27:17;13.60;23.20
11599;DHT22;5855;48.840;9.188;2023-02-28T16:29:46;12.80;24.10
11599;DHT22;5855;48.840;9.188;2023-02-28T16:32:14;12.20;25.10
11599;DHT22;5855;48.840;9.188;2023-02-28T16:34:42;11.40;26.20
11599;DHT22;5855;48.840;9.188;2023-02-28T16:37:14;10.70;27.30
11599;DHT22;5855;48.840;9.188;2023-02-28T16:39:43;10.30;28.20